sensor_id;sensor_type;location;lat;lon;timestamp;temperature;humidity
48551;DHT22;34397;51.176;6.738;2023-01-01T00:00:13;14.80;45.20
48551;DHT22;34397;51.176;6.738;2023-01-01T00:02:45;14.80;45.90
48551;DHT22;34397;51.176;6.738;2023-01-01T00:05:18;14.80;46.50
48551;DHT22;34397;51.176;6.738;2023-01-01T00:07:50;14.80;46.60
48551;DHT22;34397;51.176;6.738;2023-01-01T00:10:21;14.80;46.60
48551;DHT22;34397;51.176;6.738;2023-01-01T00:12:59;14.80;46.90
48551;DHT22;34397;51.176;6.738;2023-01-01T00:15:32;14.80;47.20
48551;DHT22;34397;51.176;6.738;2023-01-01T00:18:04;14.70;47.20
48551;DHT22;34397;51.176;6.738;2023-01-01T00:20:37;14.70;47.50
48551;DHT22;34397;51.176;6.738;2023-01-01T00:23:09;14.60;47.40
48551;DHT22;34397;51.176;6.738;2023-01-01T00:25:42;14.60;47.80
48551;DHT22;34397;51.176;6.738;2023-01-01T00:28:13;14.50;47.90
48551;DHT22;34397;51.176;6.738;2023-01-01T00:30:45;14.50;47.50
48551;DHT22;34397;51.176;6.738;2023-01-01T00:33:17;14.40;47.90
48551;DHT22;34397;51.176;6.738;2023-01-01T00:35:50;14.40;47.70
48551;DHT22;34397;51.176;6.738;2023-01-01T00:38:22;14.30;47.60
48551;DHT22;34397;51.176;6.738;2023-01-01T00:40:54;14.30;47.40
48551;DHT22;34397;51.176;6.738;2023-01-01T00:43:26;14.20;47.80
48551;DHT22;34397;51.176;6.738;2023-01-01T00:45:57;14.20;47.20
48551;DHT22;34397;51.176;6.738;2023-01-01T00:48:29;14.10;47.40
48551;DHT22;34397;51.176;6.738;2023-01-01T00:51:03;14.10;47.60
48551;DHT22;34397;51.176;6.738;2023-01-01T00:53:36;14.10;47.50
48551;DHT22;34397;51.176;6.738;2023-01-01T00:56:08;14.00;47.40
48551;DHT22;34397;51.176;6.738;2023-01-01T00:58:40;14.00;46.80
48551;DHT22;34397;51.176;6.738;2023-01-01T01:01:12;14.00;48.00
48551;DHT22;34397;51.176;6.738;2023-01-01T01:03:44;13.90;46.50
48551;DHT22;34397;51.176;6.738;2023-01-01T01:06:17;13.90;46.90
48551;DHT22;34397;51.176;6.738;2023-01-01T01:08:50;13.90;47.20
48551;DHT22;34397;51.176;6.738;2023-01-01T01:11:23;13.90;46.50
48551;DHT22;34397;51.176;6.738;2023-01-01T01:13:56;13.90;46.70
48551;DHT22;34397;51.176;6.738;2023-01-01T01:16:29;13.90;46.30
48551;DHT22;34397;51.176;6.738;2023-01-01T01:19:04;13.90;46.30
48551;DHT22;34397;51.176;6.738;2023-01-01T01:21:37;13.80;45.10
48551;DHT22;34397;51.176;6.738;2023-01-01T01:24:10;13.80;46.20
48551;DHT22;34397;51.176;6.738;2023-01-01T01:26:41;13.80;46.70
48551;DHT22;34397;51.176;6.738;2023-01-01T01:29:13;13.80;45.70
48551;DHT22;34397;51.176;6.738;2023-01-01T01:31:45;13.80;45.80
48551;DHT22;34397;51.176;6.738;2023-01-01T01:34:17;13.80;45.50
48551;DHT22;34397;51.176;6.738;2023-01-01T01:36:50;13.80;45.60
48551;DHT22;34397;51.176;6.738;2023-01-01T01:39:23;13.80;45.10
48551;DHT22;34397;51.176;6.738;2023-01-01T01:41:55;13.80;45.10
48551;DHT22;34397;51.176;6.738;2023-01-01T01:44:50;13.80;45.30
48551;DHT22;34397;51.176;6.738;2023-01-01T01:47:28;13.70;44.50
48551;DHT22;34397;51.176;6.738;2023-01-01T01:50:08;13.80;44.90
48551;DHT22;34397;51.176;6.738;2023-01-01T01:52:50;13.70;44.40
48551;DHT22;34397;51.176;6.738;2023-01-01T01:55:33;13.70;44.60
48551;DHT22;34397;51.176;6.738;2023-01-01T01:58:08;13.70;44.00
48551;DHT22;34397;51.176;6.738;2023-01-01T02:00:42;13.70;43.90
48551;DHT22;34397;51.176;6.738;2023-01-01T02:03:17;13.70;44.30
48551;DHT22;34397;51.176;6.738;2023-01-01T02:05:53;13.70;44.90
48551;DHT22;34397;51.176;6.738;2023-01-01T02:08:27;13.70;44.50
48551;DHT22;34397;51.176;6.738;2023-01-01T02:10:59;13.70;43.70
48551;DHT22;34397;51.176;6.738;2023-01-01T02:13:31;13.60;44.20
48551;DHT22;34397;51.176;6.738;2023-01-01T02:16:08;13.60;44.00
48551;DHT22;34397;51.176;6.738;2023-01-01T02:18:50;13.60;44.50
48551;DHT22;34397;51.176;6.738;2023-01-01T02:21:26;13.60;44.50
48551;DHT22;34397;51.176;6.738;2023-01-01T02:24:18;13.60;44.20
48551;DHT22;34397;51.176;6.738;2023-01-01T02:26:58;13.60;44.50
48551;DHT22;34397;51.176;6.738;2023-01-01T02:29:39;13.60;44.20
48551;DHT22;34397;51.176;6.738;2023-01-01T02:32:18;13.60;44.20
48551;DHT22;34397;51.176;6.738;2023-01-01T02:34:56;13.60;44.40
48551;DHT22;34397;51.176;6.738;2023-01-01T02:37:29;13.60;44.60
48551;DHT22;34397;51.176;6.738;2023-01-01T02:40:01;13.60;44.60
48551;DHT22;34397;51.176;6.738;2023-01-01T02:42:34;13.60;44.60
48551;DHT22;34397;51.176;6.738;2023-01-01T02:45:08;13.60;44.70
48551;DHT22;34397;51.176;6.738;2023-01-01T02:47:41;13.60;44.80
48551;DHT22;34397;51.176;6.738;2023-01-01T02:50:15;13.60;45.00
48551;DHT22;34397;51.176;6.738;2023-01-01T02:53:06;13.60;45.00
48551;DHT22;34397;51.176;6.738;2023-01-01T02:55:50;13.60;45.20
48551;DHT22;34397;51.176;6.738;2023-01-01T02:58:30;13.50;45.00
48551;DHT22;34397;51.176;6.738;2023-01-01T03:01:30;13.50;45.70
48551;DHT22;34397;51.176;6.738;2023-01-01T03:04:09;13.50;44.90
48551;DHT22;34397;51.176;6.738;2023-01-01T03:06:54;13.50;45.20
48551;DHT22;34397;51.176;6.738;2023-01-01T03:09:32;13.50;45.50
48551;DHT22;34397;51.176;6.738;2023-01-01T03:12:16;13.40;45.40
48551;DHT22;34397;51.176;6.738;2023-01-01T03:14:57;13.40;45.30
48551;DHT22;34397;51.176;6.738;2023-01-01T03:17:35;13.40;45.70
48551;DHT22;34397;51.176;6.738;2023-01-01T03:20:12;13.40;45.50
48551;DHT22;34397;51.176;6.738;2023-01-01T03:22:47;13.40;45.80
48551;DHT22;34397;51.176;6.738;2023-01-01T03:25:23;13.40;45.80
48551;DHT22;34397;51.176;6.738;2023-01-01T03:27:59;13.40;46.10
48551;DHT22;34397;51.176;6.738;2023-01-01T03:30:35;13.40;45.60
48551;DHT22;34397;51.176;6.738;2023-01-01T03:33:13;13.40;45.80
48551;DHT22;34397;51.176;6.738;2023-01-01T03:35:49;13.40;46.00
48551;DHT22;34397;51.176;6.738;2023-01-01T03:38:25;13.30;46.80
48551;DHT22;34397;51.176;6.738;2023-01-01T03:41:03;13.30;46.90
48551;DHT22;34397;51.176;6.738;2023-01-01T03:43:40;13.30;45.90
48551;DHT22;34397;51.176;6.738;2023-01-01T03:46:17;13.30;46.50
48551;DHT22;34397;51.176;6.738;2023-01-01T03:48:53;13.30;46.40
48551;DHT22;34397;51.176;6.738;2023-01-01T03:51:38;13.30;46.80
48551;DHT22;34397;51.176;6.738;2023-01-01T03:54:27;13.30;46.80
48551;DHT22;34397;51.176;6.738;2023-01-01T03:57:09;13.30;46.90
48551;DHT22;34397;51.176;6.738;2023-01-01T03:59:51;13.30;47.00
48551;DHT22;34397;51.176;6.738;2023-01-01T04:02:30;13.20;46.90
48551;DHT22;34397;51.176;6.738;2023-01-01T04:05:08;13.30;47.00
48551;DHT22;34397;51.176;6.738;2023-01-01T04:07:41;13.30;47.20
48551;DHT22;34397;51.176;6.738;2023-01-01T04:10:14;13.30;47.50
48551;DHT22;34397;51.176;6.738;2023-01-01T04:12:50;13.30;47.60
48551;DHT22;34397;51.176;6.738;2023-01-01T04:15:24;13.30;47.30
48551;DHT22;34397;51.176;6.738;2023-01-01T04:17:57;13.30;47.80
48551;DHT22;34397;51.176;6.738;2023-01-01T04:20:30;13.30;47.60
48551;DHT22;34397;51.176;6.738;2023-01-01T04:23:03;13.30;47.80
48551;DHT22;34397;51.176;6.738;2023-01-01T04:25:34;13.30;47.50
48551;DHT22;34397;51.176;6.738;2023-01-01T04:28:06;13.30;47.70
48551;DHT22;34397;51.176;6.738;2023-01-01T04:30:38;13.30;47.90
48551;DHT22;34397;51.176;6.738;2023-01-01T04:33:10;13.40;47.90
48551;DHT22;34397;51.176;6.738;2023-01-01T04:35:43;13.40;47.90
48551;DHT22;34397;51.176;6.738;2023-01-01T04:38:15;13.40;47.80
48551;DHT22;34397;51.176;6.738;2023-01-01T04:40:56;13.40;47.80
48551;DHT22;34397;51.176;6.738;2023-01-01T04:43:29;13.40;47.80
48551;DHT22;34397;51.176;6.738;2023-01-01T04:46:03;13.50;47.90
48551;DHT22;34397;51.176;6.738;2023-01-01T04:48:35;13.40;48.00
48551;DHT22;34397;51.176;6.738;2023-01-01T04:51:11;13.40;48.20
48551;DHT22;34397;51.176;6.738;2023-01-01T04:53:44;13.40;48.40
48551;DHT22;34397;51.176;6.738;2023-01-01T04:56:18;13.50;48.60
48551;DHT22;34397;51.176;6.738;2023-01-01T04:58:50;13.40;48.50
48551;DHT22;34397;51.176;6.738;2023-01-01T05:01:24;13.40;48.60
48551;DHT22;34397;51.176;6.738;2023-01-01T05:03:58;13.40;48.50
48551;DHT22;34397;51.176;6.738;2023-01-01T05:06:32;13.40;48.60
48551;DHT22;34397;51.176;6.738;2023-01-01T05:09:04;13.40;49.20
48551;DHT22;34397;51.176;6.738;2023-01-01T05:11:36;13.40;48.60
48551;DHT22;34397;51.176;6.738;2023-01-01T05:14:07;13.40;48.80
48551;DHT22;34397;51.176;6.738;2023-01-01T05:16:39;13.40;48.80
48551;DHT22;34397;51.176;6.738;2023-01-01T05:19:11;13.40;48.70
48551;DHT22;34397;51.176;6.738;2023-01-01T05:21:45;13.30;48.80
48551;DHT22;34397;51.176;6.738;2023-01-01T05:24:17;13.30;49.00
48551;DHT22;34397;51.176;6.738;2023-01-01T05:26:48;13.30;49.30
48551;DHT22;34397;51.176;6.738;2023-01-01T05:29:20;13.30;49.20
48551;DHT22;34397;51.176;6.738;2023-01-01T05:31:53;13.30;49.60
48551;DHT22;34397;51.176;6.738;2023-01-01T05:34:26;13.30;49.30
48551;DHT22;34397;51.176;6.738;2023-01-01T05:36:59;13.30;49.00
48551;DHT22;34397;51.176;6.738;2023-01-01T05:39:30;13.30;49.20
48551;DHT22;34397;51.176;6.738;2023-01-01T05:42:03;13.20;49.10
48551;DHT22;34397;51.176;6.738;2023-01-01T05:44:34;13.20;49.30
48551;DHT22;34397;51.176;6.738;2023-01-01T05:47:06;13.20;49.70
48551;DHT22;34397;51.176;6.738;2023-01-01T05:49:38;13.20;49.60
48551;DHT22;34397;51.176;6.738;2023-01-01T05:52:11;13.30;49.70
48551;DHT22;34397;51.176;6.738;2023-01-01T05:54:43;13.30;49.60
48551;DHT22;34397;51.176;6.738;2023-01-01T05:57:14;13.30;49.40
48551;DHT22;34397;51.176;6.738;2023-01-01T05:59:46;13.30;49.80
48551;DHT22;34397;51.176;6.738;2023-01-01T06:02:18;13.30;49.70
48551;DHT22;34397;51.176;6.738;2023-01-01T06:04:50;13.30;49.90
48551;DHT22;34397;51.176;6.738;2023-01-01T06:07:23;13.20;50.20
48551;DHT22;34397;51.176;6.738;2023-01-01T06:09:55;13.20;50.60
48551;DHT22;34397;51.176;6.738;2023-01-01T06:12:27;13.20;50.90
48551;DHT22;34397;51.176;6.738;2023-01-01T06:14:58;13.20;51.30
48551;DHT22;34397;51.176;6.738;2023-01-01T06:17:32;13.20;51.20
48551;DHT22;34397;51.176;6.738;2023-01-01T06:20:05;13.20;51.10
48551;DHT22;34397;51.176;6.738;2023-01-01T06:22:38;13.10;51.20
48551;DHT22;34397;51.176;6.738;2023-01-01T06:25:10;13.10;51.00
48551;DHT22;34397;51.176;6.738;2023-01-01T06:27:42;13.10;51.00
48551;DHT22;34397;51.176;6.738;2023-01-01T06:30:14;13.10;51.20
48551;DHT22;34397;51.176;6.738;2023-01-01T06:32:46;13.20;51.20
48551;DHT22;34397;51.176;6.738;2023-01-01T06:35:18;13.10;51.20
48551;DHT22;34397;51.176;6.738;2023-01-01T06:37:51;13.10;51.20
48551;DHT22;34397;51.176;6.738;2023-01-01T06:40:23;13.10;51.10
48551;DHT22;34397;51.176;6.738;2023-01-01T06:42:54;13.10;51.20
48551;DHT22;34397;51.176;6.738;2023-01-01T06:45:26;13.20;51.10
48551;DHT22;34397;51.176;6.738;2023-01-01T06:47:58;13.20;50.80
48551;DHT22;34397;51.176;6.738;2023-01-01T06:50:30;13.20;51.00
48551;DHT22;34397;51.176;6.738;2023-01-01T06:53:03;13.20;50.90
48551;DHT22;34397;51.176;6.738;2023-01-01T06:55:35;13.20;50.90
48551;DHT22;34397;51.176;6.738;2023-01-01T06:58:07;13.20;51.10
48551;DHT22;34397;51.176;6.738;2023-01-01T07:00:39;13.20;50.90
48551;DHT22;34397;51.176;6.738;2023-01-01T07:03:11;13.20;51.00
48551;DHT22;34397;51.176;6.738;2023-01-01T07:05:43;13.20;51.00
48551;DHT22;34397;51.176;6.738;2023-01-01T07:08:16;13.20;51.00
48551;DHT22;34397;51.176;6.738;2023-01-01T07:10:48;13.30;51.10
48551;DHT22;34397;51.176;6.738;2023-01-01T07:13:19;13.30;51.00
48551;DHT22;34397;51.176;6.738;2023-01-01T07:15:51;13.30;51.20
48551;DHT22;34397;51.176;6.738;2023-01-01T07:18:24;13.30;51.40
48551;DHT22;34397;51.176;6.738;2023-01-01T07:20:59;13.30;51.60
48551;DHT22;34397;51.176;6.738;2023-01-01T07:23:34;13.30;51.90
48551;DHT22;34397;51.176;6.738;2023-01-01T07:26:05;13.20;52.00
48551;DHT22;34397;51.176;6.738;2023-01-01T07:28:37;13.20;52.20
48551;DHT22;34397;51.176;6.738;2023-01-01T07:31:09;13.20;52.40
48551;DHT22;34397;51.176;6.738;2023-01-01T07:33:41;13.20;52.80
48551;DHT22;34397;51.176;6.738;2023-01-01T07:36:13;13.20;53.00
48551;DHT22;34397;51.176;6.738;2023-01-01T07:38:46;13.10;53.20
48551;DHT22;34397;51.176;6.738;2023-01-01T07:41:18;13.10;53.90
48551;DHT22;34397;51.176;6.738;2023-01-01T07:43:50;13.10;54.10
48551;DHT22;34397;51.176;6.738;2023-01-01T07:46:22;13.10;54.60
48551;DHT22;34397;51.176;6.738;2023-01-01T07:48:53;13.00;55.00
48551;DHT22;34397;51.176;6.738;2023-01-01T07:51:25;12.90;55.40
48551;DHT22;34397;51.176;6.738;2023-01-01T07:53:59;12.90;55.50
48551;DHT22;34397;51.176;6.738;2023-01-01T07:56:31;12.80;55.60
48551;DHT22;34397;51.176;6.738;2023-01-01T07:59:04;12.70;55.70
48551;DHT22;34397;51.176;6.738;2023-01-01T08:01:36;12.70;56.20
48551;DHT22;34397;51.176;6.738;2023-01-01T08:04:08;12.70;56.20
48551;DHT22;34397;51.176;6.738;2023-01-01T08:06:40;12.60;56.10
48551;DHT22;34397;51.176;6.738;2023-01-01T08:09:13;12.60;56.90
48551;DHT22;34397;51.176;6.738;2023-01-01T08:11:44;12.60;56.90
48551;DHT22;34397;51.176;6.738;2023-01-01T08:14:16;12.70;56.70
48551;DHT22;34397;51.176;6.738;2023-01-01T08:16:48;12.70;56.80
48551;DHT22;34397;51.176;6.738;2023-01-01T08:19:20;12.70;56.80
48551;DHT22;34397;51.176;6.738;2023-01-01T08:21:52;12.70;56.20
48551;DHT22;34397;51.176;6.738;2023-01-01T08:24:25;12.70;56.40
48551;DHT22;34397;51.176;6.738;2023-01-01T08:26:56;12.70;56.90
48551;DHT22;34397;51.176;6.738;2023-01-01T08:29:28;12.60;56.20
48551;DHT22;34397;51.176;6.738;2023-01-01T08:32:00;12.70;56.30
48551;DHT22;34397;51.176;6.738;2023-01-01T08:34:32;12.70;56.50
48551;DHT22;34397;51.176;6.738;2023-01-01T08:37:04;12.60;56.50
48551;DHT22;34397;51.176;6.738;2023-01-01T08:39:37;12.60;56.20
48551;DHT22;34397;51.176;6.738;2023-01-01T08:42:09;12.70;56.30
48551;DHT22;34397;51.176;6.738;2023-01-01T08:44:41;12.70;56.30
48551;DHT22;34397;51.176;6.738;2023-01-01T08:47:17;12.70;56.20
48551;DHT22;34397;51.176;6.738;2023-01-01T08:49:50;12.70;56.30
48551;DHT22;34397;51.176;6.738;2023-01-01T08:52:22;12.70;56.20
48551;DHT22;34397;51.176;6.738;2023-01-01T08:54:55;12.70;56.20
48551;DHT22;34397;51.176;6.738;2023-01-01T08:57:28;12.70;56.20
48551;DHT22;34397;51.176;6.738;2023-01-01T09:00:00;12.80;56.10
48551;DHT22;34397;51.176;6.738;2023-01-01T09:02:32;12.80;56.10
48551;DHT22;34397;51.176;6.738;2023-01-01T09:05:05;12.80;56.30
48551;DHT22;34397;51.176;6.738;2023-01-01T09:07:38;12.80;56.20
48551;DHT22;34397;51.176;6.738;2023-01-01T09:10:11;12.70;56.30
48551;DHT22;34397;51.176;6.738;2023-01-01T09:12:42;12.80;56.40
48551;DHT22;34397;51.176;6.738;2023-01-01T09:15:15;12.70;56.40
48551;DHT22;34397;51.176;6.738;2023-01-01T09:17:47;12.70;56.50
48551;DHT22;34397;51.176;6.738;2023-01-01T09:20:19;12.80;56.60
48551;DHT22;34397;51.176;6.738;2023-01-01T09:22:51;12.80;56.50
48551;DHT22;34397;51.176;6.738;2023-01-01T09:25:25;12.80;56.50
48551;DHT22;34397;51.176;6.738;2023-01-01T09:27:57;12.80;56.70
48551;DHT22;34397;51.176;6.738;2023-01-01T09:30:29;12.80;56.90
48551;DHT22;34397;51.176;6.738;2023-01-01T09:33:01;12.80;57.00
48551;DHT22;34397;51.176;6.738;2023-01-01T09:35:33;12.70;57.00
48551;DHT22;34397;51.176;6.738;2023-01-01T09:38:07;12.80;57.10
48551;DHT22;34397;51.176;6.738;2023-01-01T09:40:51;12.80;57.10
48551;DHT22;34397;51.176;6.738;2023-01-01T09:43:33;12.80;57.80
48551;DHT22;34397;51.176;6.738;2023-01-01T09:46:08;12.80;57.00
48551;DHT22;34397;51.176;6.738;2023-01-01T09:48:43;12.80;57.20
48551;DHT22;34397;51.176;6.738;2023-01-01T09:51:20;12.80;57.30
48551;DHT22;34397;51.176;6.738;2023-01-01T09:53:58;12.80;57.30
48551;DHT22;34397;51.176;6.738;2023-01-01T09:56:34;12.80;57.30
48551;DHT22;34397;51.176;6.738;2023-01-01T09:59:07;12.80;57.30
48551;DHT22;34397;51.176;6.738;2023-01-01T10:01:47;12.80;57.30
48551;DHT22;34397;51.176;6.738;2023-01-01T10:04:31;12.90;57.20
48551;DHT22;34397;51.176;6.738;2023-01-01T10:07:17;12.90;57.10
48551;DHT22;34397;51.176;6.738;2023-01-01T10:09:58;12.90;57.40
48551;DHT22;34397;51.176;6.738;2023-01-01T10:12:41;12.80;57.20
48551;DHT22;34397;51.176;6.738;2023-01-01T10:15:21;12.90;57.40
48551;DHT22;34397;51.176;6.738;2023-01-01T10:17:56;12.80;57.20
48551;DHT22;34397;51.176;6.738;2023-01-01T10:20:35;12.90;57.50
48551;DHT22;34397;51.176;6.738;2023-01-01T10:23:13;12.90;57.20
48551;DHT22;34397;51.176;6.738;2023-01-01T10:25:48;12.90;57.30
48551;DHT22;34397;51.176;6.738;2023-01-01T10:28:24;12.90;57.20
48551;DHT22;34397;51.176;6.738;2023-01-01T10:31:13;12.90;57.10
48551;DHT22;34397;51.176;6.738;2023-01-01T10:33:46;12.90;56.90
48551;DHT22;34397;51.176;6.738;2023-01-01T10:36:18;12.90;57.00
48551;DHT22;34397;51.176;6.738;2023-01-01T10:38:50;12.90;57.00
48551;DHT22;34397;51.176;6.738;2023-01-01T10:41:22;12.90;57.10
48551;DHT22;34397;51.176;6.738;2023-01-01T10:43:56;12.90;57.00
48551;DHT22;34397;51.176;6.738;2023-01-01T10:46:28;12.90;57.10
48551;DHT22;34397;51.176;6.738;2023-01-01T10:49:06;12.90;57.00
48551;DHT22;34397;51.176;6.738;2023-01-01T10:51:43;12.90;56.90
48551;DHT22;34397;51.176;6.738;2023-01-01T10:54:30;12.90;57.10
48551;DHT22;34397;51.176;6.738;2023-01-01T10:57:12;12.90;57.10
48551;DHT22;34397;51.176;6.738;2023-01-01T10:59:46;12.90;57.10
48551;DHT22;34397;51.176;6.738;2023-01-01T11:02:20;12.90;57.00
48551;DHT22;34397;51.176;6.738;2023-01-01T11:05:16;12.90;56.70
48551;DHT22;34397;51.176;6.738;2023-01-01T11:07:49;12.90;56.90
48551;DHT22;34397;51.176;6.738;2023-01-01T11:10:23;12.90;56.90
48551;DHT22;34397;51.176;6.738;2023-01-01T11:12:55;13.00;57.00
48551;DHT22;34397;51.176;6.738;2023-01-01T11:15:35;13.00;56.90
48551;DHT22;34397;51.176;6.738;2023-01-01T11:18:12;13.00;56.90
48551;DHT22;34397;51.176;6.738;2023-01-01T11:20:50;13.00;57.00
48551;DHT22;34397;51.176;6.738;2023-01-01T11:23:31;13.00;57.10
48551;DHT22;34397;51.176;6.738;2023-01-01T11:26:06;13.00;57.00
48551;DHT22;34397;51.176;6.738;2023-01-01T11:29:01;13.10;57.00
48551;DHT22;34397;51.176;6.738;2023-01-01T11:31:37;13.00;56.80
48551;DHT22;34397;51.176;6.738;2023-01-01T11:34:25;13.00;57.10
48551;DHT22;34397;51.176;6.738;2023-01-01T11:37:13;13.10;57.30
48551;DHT22;34397;51.176;6.738;2023-01-01T11:39:52;13.10;57.10
48551;DHT22;34397;51.176;6.738;2023-01-01T11:42:33;13.10;57.70
48551;DHT22;34397;51.176;6.738;2023-01-01T11:45:46;13.10;56.90
48551;DHT22;34397;51.176;6.738;2023-01-01T11:48:32;13.10;57.10
48551;DHT22;34397;51.176;6.738;2023-01-01T11:51:07;13.10;56.40
48551;DHT22;34397;51.176;6.738;2023-01-01T11:53:41;12.90;56.60
48551;DHT22;34397;51.176;6.738;2023-01-01T11:56:15;13.00;56.70
48551;DHT22;34397;51.176;6.738;2023-01-01T11:58:51;13.00;56.50
48551;DHT22;34397;51.176;6.738;2023-01-01T12:01:28;13.00;56.40
48551;DHT22;34397;51.176;6.738;2023-01-01T12:04:08;13.00;56.60
48551;DHT22;34397;51.176;6.738;2023-01-01T12:06:48;13.00;56.30
48551;DHT22;34397;51.176;6.738;2023-01-01T12:09:25;13.00;56.30
48551;DHT22;34397;51.176;6.738;2023-01-01T12:12:02;13.00;56.10
48551;DHT22;34397;51.176;6.738;2023-01-01T12:14:43;13.00;55.80
48551;DHT22;34397;51.176;6.738;2023-01-01T12:17:21;13.00;55.60
48551;DHT22;34397;51.176;6.738;2023-01-01T12:19:59;12.90;56.20
48551;DHT22;34397;51.176;6.738;2023-01-01T12:22:35;12.90;56.30
48551;DHT22;34397;51.176;6.738;2023-01-01T12:25:11;12.90;55.80
48551;DHT22;34397;51.176;6.738;2023-01-01T12:27:56;12.90;56.10
48551;DHT22;34397;51.176;6.738;2023-01-01T12:30:38;12.90;56.00
48551;DHT22;34397;51.176;6.738;2023-01-01T12:33:32;12.90;55.80
48551;DHT22;34397;51.176;6.738;2023-01-01T12:36:24;12.90;55.70
48551;DHT22;34397;51.176;6.738;2023-01-01T12:39:55;12.90;55.90
48551;DHT22;34397;51.176;6.738;2023-01-01T12:42:59;13.00;55.90
48551;DHT22;34397;51.176;6.738;2023-01-01T12:52:09;13.00;55.30
48551;DHT22;34397;51.176;6.738;2023-01-01T12:58:21;13.00;55.40
48551;DHT22;34397;51.176;6.738;2023-01-01T13:00:59;13.00;55.20
48551;DHT22;34397;51.176;6.738;2023-01-01T13:03:38;12.90;55.50
48551;DHT22;34397;51.176;6.738;2023-01-01T13:06:19;12.90;55.40
48551;DHT22;34397;51.176;6.738;2023-01-01T13:08:59;12.90;55.20
48551;DHT22;34397;51.176;6.738;2023-01-01T13:11:36;12.90;55.20
48551;DHT22;34397;51.176;6.738;2023-01-01T13:14:08;12.90;55.20
48551;DHT22;34397;51.176;6.738;2023-01-01T13:16:41;12.90;55.30
48551;DHT22;34397;51.176;6.738;2023-01-01T13:19:24;12.90;55.10
48551;DHT22;34397;51.176;6.738;2023-01-01T13:21:58;13.00;55.20
48551;DHT22;34397;51.176;6.738;2023-01-01T13:24:33;13.00;55.10
48551;DHT22;34397;51.176;6.738;2023-01-01T13:27:05;13.00;55.00
48551;DHT22;34397;51.176;6.738;2023-01-01T13:29:44;13.00;55.00
48551;DHT22;34397;51.176;6.738;2023-01-01T13:32:16;13.00;54.90
48551;DHT22;34397;51.176;6.738;2023-01-01T13:35:00;13.00;54.80
48551;DHT22;34397;51.176;6.738;2023-01-01T13:37:53;13.00;55.10
48551;DHT22;34397;51.176;6.738;2023-01-01T13:43:28;13.00;54.80
48551;DHT22;34397;51.176;6.738;2023-01-01T13:46:02;13.00;54.70
48551;DHT22;34397;51.176;6.738;2023-01-01T13:48:57;13.00;54.70
48551;DHT22;34397;51.176;6.738;2023-01-01T13:55:39;13.00;54.40
48551;DHT22;34397;51.176;6.738;2023-01-01T13:58:45;13.00;54.20
48551;DHT22;34397;51.176;6.738;2023-01-01T14:01:48;13.00;54.30
48551;DHT22;34397;51.176;6.738;2023-01-01T14:04:33;13.00;54.30
48551;DHT22;34397;51.176;6.738;2023-01-01T14:07:16;13.00;54.10
48551;DHT22;34397;51.176;6.738;2023-01-01T14:09:50;13.00;54.20
48551;DHT22;34397;51.176;6.738;2023-01-01T14:12:24;13.00;54.10
48551;DHT22;34397;51.176;6.738;2023-01-01T14:14:55;13.00;54.10
48551;DHT22;34397;51.176;6.738;2023-01-01T14:17:27;13.00;54.20
48551;DHT22;34397;51.176;6.738;2023-01-01T14:19:59;13.00;54.00
48551;DHT22;34397;51.176;6.738;2023-01-01T14:22:31;13.00;54.00
48551;DHT22;34397;51.176;6.738;2023-01-01T14:25:05;13.00;54.10
48551;DHT22;34397;51.176;6.738;2023-01-01T14:27:38;13.00;54.00
48551;DHT22;34397;51.176;6.738;2023-01-01T14:30:15;13.00;53.90
48551;DHT22;34397;51.176;6.738;2023-01-01T14:32:54;13.00;54.00
48551;DHT22;34397;51.176;6.738;2023-01-01T14:35:28;12.90;54.00
48551;DHT22;34397;51.176;6.738;2023-01-01T14:38:17;13.00;54.30
48551;DHT22;34397;51.176;6.738;2023-01-01T14:41:07;12.90;54.10
48551;DHT22;34397;51.176;6.738;2023-01-01T14:43:45;13.00;54.20
48551;DHT22;34397;51.176;6.738;2023-01-01T14:46:20;13.00;54.40
48551;DHT22;34397;51.176;6.738;2023-01-01T14:48:56;13.00;54.70
48551;DHT22;34397;51.176;6.738;2023-01-01T14:51:31;13.00;55.00
48551;DHT22;34397;51.176;6.738;2023-01-01T14:54:03;13.00;55.20
48551;DHT22;34397;51.176;6.738;2023-01-01T14:56:36;13.00;55.40
48551;DHT22;34397;51.176;6.738;2023-01-01T14:59:12;12.90;55.30
48551;DHT22;34397;51.176;6.738;2023-01-01T15:01:58;13.00;55.40
48551;DHT22;34397;51.176;6.738;2023-01-01T15:04:31;12.90;55.70
48551;DHT22;34397;51.176;6.738;2023-01-01T15:07:02;13.00;55.50
48551;DHT22;34397;51.176;6.738;2023-01-01T15:09:34;12.90;55.60
48551;DHT22;34397;51.176;6.738;2023-01-01T15:12:11;12.90;55.60
48551;DHT22;34397;51.176;6.738;2023-01-01T15:14:50;12.90;55.70
48551;DHT22;34397;51.176;6.738;2023-01-01T15:17:24;12.90;56.00
48551;DHT22;34397;51.176;6.738;2023-01-01T15:20:01;12.80;56.30
48551;DHT22;34397;51.176;6.738;2023-01-01T15:22:36;12.80;56.70
48551;DHT22;34397;51.176;6.738;2023-01-01T15:25:12;12.80;56.50
48551;DHT22;34397;51.176;6.738;2023-01-01T15:27:48;12.80;56.80
48551;DHT22;34397;51.176;6.738;2023-01-01T15:30:27;12.80;57.30
48551;DHT22;34397;51.176;6.738;2023-01-01T15:33:05;12.80;57.40
48551;DHT22;34397;51.176;6.738;2023-01-01T15:35:38;12.80;58.30
48551;DHT22;34397;51.176;6.738;2023-01-01T15:38:15;12.70;57.70
48551;DHT22;34397;51.176;6.738;2023-01-01T15:40:50;12.70;58.40
48551;DHT22;34397;51.176;6.738;2023-01-01T15:43:23;12.60;58.20
48551;DHT22;34397;51.176;6.738;2023-01-01T15:45:59;12.60;58.70
48551;DHT22;34397;51.176;6.738;2023-01-01T15:48:49;12.60;58.60
48551;DHT22;34397;51.176;6.738;2023-01-01T15:51:23;12.50;58.70
48551;DHT22;34397;51.176;6.738;2023-01-01T15:53:58;12.40;58.90
48551;DHT22;34397;51.176;6.738;2023-01-01T15:56:38;12.50;59.40
48551;DHT22;34397;51.176;6.738;2023-01-01T15:59:21;12.40;59.50
48551;DHT22;34397;51.176;6.738;2023-01-01T16:02:12;12.30;59.70
48551;DHT22;34397;51.176;6.738;2023-01-01T16:04:46;12.30;59.80
48551;DHT22;34397;51.176;6.738;2023-01-01T16:07:22;12.30;59.90
48551;DHT22;34397;51.176;6.738;2023-01-01T16:09:54;12.30;60.30
48551;DHT22;34397;51.176;6.738;2023-01-01T16:12:26;12.20;60.30
48551;DHT22;34397;51.176;6.738;2023-01-01T16:14:59;12.20;60.70
48551;DHT22;34397;51.176;6.738;2023-01-01T16:17:33;12.20;60.70
48551;DHT22;34397;51.176;6.738;2023-01-01T16:20:05;12.10;61.00
48551;DHT22;34397;51.176;6.738;2023-01-01T16:22:39;12.10;61.20
48551;DHT22;34397;51.176;6.738;2023-01-01T16:25:13;12.10;61.50
48551;DHT22;34397;51.176;6.738;2023-01-01T16:27:46;12.00;61.90
48551;DHT22;34397;51.176;6.738;2023-01-01T16:30:18;12.00;61.80
48551;DHT22;34397;51.176;6.738;2023-01-01T16:32:51;12.00;62.30
48551;DHT22;34397;51.176;6.738;2023-01-01T16:35:23;11.90;62.40
48551;DHT22;34397;51.176;6.738;2023-01-01T16:37:55;11.90;62.70
48551;DHT22;34397;51.176;6.738;2023-01-01T16:40:27;11.90;63.30